»·PEaware :: N592BC KPHX-KLAX

N592BC :: KPHX-KLAX

FLIGHT INFORMATION

Flight Status: Arrived
Operator: Privately registered:
United States
More flights under this callsign
Pilot: Roger W. (24)
Aircraft: BOEING 737-900
(B739)
More flights by this aircraft type
Origin: KPHX Phoenix Sky Harbor Intl
United States
Destination: KLAX Los Angeles Intl
United States
More flights between these airports :: More routes between these airports
Route: IZZZO6 MESSI ESTWD HLYWD1
File this flight plan on PilotEdge
Remarks: KLAX S CARGO
Altitude:
(Current/Filed)
28,000ft
Speed:
(Current/Filed)
498kts
Departed: 23-Sep-17 07:59 PM
Arrived: 23-Sep-17 08:56 PM
Distance/Time
Traveled:
321nm/0:57
Distance/Time
To Go:
Arrived

Flight Plot

Page will automatically refresh every two minutes.

Flight plan parsing failed; only flown route is shown


Map Options




Map Legend


Flown Route
Filed Route
Departure Airport
Arrival Airport
Navaid (VOR, NDB)
Fix

Horizontal Profiles

Position Reports

Time Latitude Longitude Heading Altitude Ground
Speed
23-Sep-17 19:34 33.433751 -111.994833 89 1146ft 0kts
23-Sep-17 19:35 33.433751 -111.994833 89 1146ft 0kts
23-Sep-17 19:36 33.433751 -111.994833 89 1146ft 0kts
23-Sep-17 19:37 33.433751 -111.994833 89 1146ft 0kts
23-Sep-17 19:38 33.433751 -111.994833 89 1146ft 0kts
23-Sep-17 19:39 33.433751 -111.994833 89 1146ft 0kts
23-Sep-17 19:40 33.433751 -111.994833 89 1146ft 0kts
23-Sep-17 19:41 33.433751 -111.994833 89 1146ft 0kts
23-Sep-17 19:42 33.433751 -111.994833 89 1146ft 0kts
23-Sep-17 19:43 33.433751 -111.994833 89 1146ft 0kts
23-Sep-17 19:44 33.433751 -111.994833 89 1146ft 0kts
23-Sep-17 19:45 33.433751 -111.994833 89 1146ft 0kts
23-Sep-17 19:46 33.433751 -111.994833 89 1146ft 0kts
23-Sep-17 19:47 33.433751 -111.994833 89 1146ft 0kts
23-Sep-17 19:48 33.433751 -111.994833 89 1146ft 0kts
23-Sep-17 19:49 33.433751 -111.994833 89 1146ft 0kts
23-Sep-17 19:50 33.433751 -111.994833 89 1146ft 0kts
23-Sep-17 19:51 33.433775 -111.995184 111 1146ft 2kts
23-Sep-17 19:52 33.434329 -111.995496 179 1146ft 0kts
23-Sep-17 19:53 33.434329 -111.995496 179 1146ft 0kts
23-Sep-17 19:54 33.434329 -111.995496 179 1146ft 0kts
23-Sep-17 19:55 33.434329 -111.995496 179 1146ft 0kts
23-Sep-17 19:56 33.434315 -111.995496 179 1146ft 2kts
23-Sep-17 19:57 33.434166 -111.995496 179 1146ft 0kts
23-Sep-17 19:58 33.433811 -111.995479 172 1146ft 7kts
23-Sep-17 19:59 33.432654 -111.994620 162 1146ft 7kts
23-Sep-17 20:00 33.431864 -111.993174 231 1146ft 3kts
23-Sep-17 20:01 33.431811 -111.993258 232 1146ft 5kts
23-Sep-17 20:02 33.431039 -111.996663 270 1146ft 37kts
23-Sep-17 20:03 33.431475 -112.045589 271 2649ft 189kts
23-Sep-17 20:04 33.434041 -112.107950 272 5294ft 194kts
23-Sep-17 20:05 33.436912 -112.175665 271 7494ft 212kts
23-Sep-17 20:06 33.440125 -112.253390 272 9103ft 245kts
23-Sep-17 20:07 33.443409 -112.340147 270 10630ft 273kts
23-Sep-17 20:08 33.446045 -112.440048 270 10894ft 324kts
23-Sep-17 20:09 33.448918 -112.552355 270 11362ft 337kts
23-Sep-17 20:10 33.451025 -112.665818 269 12242ft 335kts
23-Sep-17 20:11 33.452923 -112.784708 272 14177ft 368kts
23-Sep-17 20:12 33.487289 -112.902153 294 17164ft 389kts
23-Sep-17 20:13 33.530677 -113.022499 290 19690ft 400kts
23-Sep-17 20:14 33.574088 -113.147168 289 21987ft 411kts
23-Sep-17 20:15 33.618643 -113.275565 290 23870ft 420kts
23-Sep-17 20:16 33.663731 -113.406053 290 25433ft 426kts
23-Sep-17 20:17 33.709161 -113.538063 290 26727ft 430kts
23-Sep-17 20:18 33.754820 -113.671284 290 27810ft 432kts
23-Sep-17 20:19 33.800403 -113.804848 290 27849ft 431kts
23-Sep-17 20:20 33.845679 -113.937949 290 27849ft 430kts
23-Sep-17 20:21 33.886143 -114.057372 290 27845ft 430kts
23-Sep-17 20:22 33.918210 -114.189923 280 27860ft 428kts
23-Sep-17 20:23 33.941939 -114.330205 280 27843ft 428kts
23-Sep-17 20:24 33.965526 -114.470334 280 27840ft 427kts
23-Sep-17 20:25 33.988989 -114.610745 280 27839ft 425kts
23-Sep-17 20:26 34.012174 -114.750482 280 27841ft 427kts
23-Sep-17 20:27 34.035203 -114.890369 281 27845ft 426kts
23-Sep-17 20:28 34.058125 -115.030575 281 27859ft 425kts
23-Sep-17 20:29 34.080821 -115.170065 281 27867ft 423kts
23-Sep-17 20:30 34.103259 -115.309037 281 27880ft 422kts
23-Sep-17 20:31 34.125532 -115.447996 282 27891ft 420kts
23-Sep-17 20:32 34.147530 -115.586303 282 27909ft 419kts
23-Sep-17 20:33 34.160569 -115.725659 268 27934ft 424kts
23-Sep-17 20:34 34.146645 -115.867932 267 27948ft 425kts
23-Sep-17 20:35 34.132831 -116.009515 267 27934ft 425kts
23-Sep-17 20:36 34.118885 -116.151467 267 27397ft 426kts
23-Sep-17 20:37 34.104839 -116.292683 267 26287ft 421kts
23-Sep-17 20:38 34.090752 -116.425175 267 25235ft 375kts
23-Sep-17 20:39 34.080001 -116.525120 267 24374ft 353kts
23-Sep-17 20:40 34.066307 -116.662406 268 23957ft 353kts
23-Sep-17 20:41 34.055362 -116.779912 268 23942ft 353kts
23-Sep-17 20:42 34.046188 -116.877350 268 23220ft 347kts
23-Sep-17 20:43 34.029339 -117.010463 266 21231ft 342kts
23-Sep-17 20:44 34.017990 -117.104335 267 19785ft 337kts
23-Sep-17 20:45 34.004780 -117.215380 267 18071ft 332kts
23-Sep-17 20:46 33.991671 -117.325069 266 16244ft 328kts
23-Sep-17 20:47 33.979002 -117.432665 265 14190ft 320kts
23-Sep-17 20:48 33.980493 -117.535269 284 12724ft 304kts
23-Sep-17 20:49 33.998217 -117.634023 283 10895ft 296kts
23-Sep-17 20:50 34.002950 -117.726998 263 10097ft 270kts
23-Sep-17 20:51 33.993578 -117.819205 264 8726ft 278kts
23-Sep-17 20:52 33.984599 -117.911318 263 7328ft 276kts
23-Sep-17 20:53 33.975605 -118.002517 263 5999ft 272kts
23-Sep-17 20:54 33.967128 -118.088534 263 4665ft 242kts
23-Sep-17 20:55 33.960471 -118.164352 260 3595ft 202kts
23-Sep-17 20:56 33.953500 -118.230592 264 2625ft 197kts
23-Sep-17 20:57 33.947250 -118.288617 262 1556ft 154kts
23-Sep-17 20:58 33.942268 -118.336892 262 880ft 138kts
23-Sep-17 20:59 33.937645 -118.382293 263 180ft 127kts
23-Sep-17 21:00 33.934527 -118.402574 223 137ft 0kts

Navigation Log

Ident Type
Flight plan parsing failed, navigation log unavailable